Time;durP1;ratioP1;P1;durP2;ratioP2;P2;SDS_P1;SDS_P2;PMS_P1;PMS_P2;Temp;Humidity;BMP_temperature;BMP_pressure;BME280_temperature;BME280_humidity;BME280_pressure;Samples;Min_cycle;Max_cycle;Signal;HPM_P1;HPM_P2
2022/07/01 00:01:46;;;;;;;34.05;28.90;;;14.90;99.90;;;;;;5063194;28;20048;-76
2022/07/01 00:04:12;;;;;;;39.30;28.48;;;15.00;99.90;;;;;;5046427;28;20228;-78
2022/07/01 00:06:39;;;;;;;37.45;30.25;;;14.90;99.90;;;;;;5033147;28;20325;-76
2022/07/01 00:09:06;;;;;;;40.95;31.90;;;14.90;99.90;;;;;;5052343;28;20131;-74
2022/07/01 00:11:33;;;;;;;53.28;33.13;;;14.80;99.90;;;;;;5027625;28;20075;-77
2022/07/01 00:13:59;;;;;;;44.20;31.08;;;14.80;99.90;;;;;;5045445;28;20135;-76
2022/07/01 00:16:26;;;;;;;32.75;25.40;;;14.70;99.90;;;;;;5061869;28;20282;-75
2022/07/01 00:18:53;;;;;;;42.60;28.50;;;14.60;99.90;;;;;;5045092;28;20313;-76
2022/07/01 00:21:20;;;;;;;34.25;25.25;;;14.50;99.90;;;;;;5045241;28;20346;-77
2022/07/01 00:23:46;;;;;;;27.67;23.58;;;14.50;99.90;;;;;;5053585;28;20605;-77
2022/07/01 00:26:13;;;;;;;31.52;24.45;;;14.50;99.90;;;;;;5029819;28;20044;-76
2022/07/01 00:28:40;;;;;;;30.92;25.17;;;14.50;99.90;;;;;;5044195;28;20084;-77
2022/07/01 00:31:07;;;;;;;30.17;22.85;;;14.50;99.90;;;;;;5024344;28;20045;-78
2022/07/01 00:33:34;;;;;;;29.38;23.60;;;14.50;99.90;;;;;;5026384;28;20045;-77
2022/07/01 00:36:00;;;;;;;31.58;24.42;;;14.40;99.90;;;;;;5048180;28;20489;-78
2022/07/01 00:38:27;;;;;;;26.23;22.67;;;14.40;99.90;;;;;;5054187;28;20052;-77
2022/07/01 00:40:55;;;;;;;25.95;21.63;;;14.40;99.90;;;;;;5049406;28;20044;-77
2022/07/01 00:43:25;;;;;;;31.65;23.25;;;14.40;99.90;;;;;;5046513;28;20048;-77
2022/07/01 00:46:12;;;;;;;36.13;25.23;;;14.30;99.90;;;;;;5045499;28;20036;-78
2022/07/01 00:48:39;;;;;;;31.27;24.25;;;14.40;99.90;;;;;;5045634;28;20521;-77
2022/07/01 00:51:07;;;;;;;31.48;25.58;;;14.30;99.90;;;;;;5063602;28;20043;-76
2022/07/01 00:53:35;;;;;;;38.20;27.58;;;14.30;99.90;;;;;;5067333;22;20031;-70
2022/07/01 00:56:02;;;;;;;40.85;29.67;;;14.30;99.90;;;;;;5063400;28;20041;-70
2022/07/01 00:58:30;;;;;;;45.67;32.22;;;14.30;99.90;;;;;;5045403;28;20044;-70
2022/07/01 01:00:58;;;;;;;43.95;32.17;;;14.20;99.90;;;;;;5046331;28;20040;-70
2022/07/01 01:03:26;;;;;;;46.88;32.97;;;14.30;99.90;;;;;;5045665;28;20044;-71
2022/07/01 01:05:57;;;;;;;37.50;28.98;;;14.20;99.90;;;;;;5058314;28;20086;-70
2022/07/01 01:08:25;;;;;;;48.95;32.25;;;14.20;99.90;;;;;;5050341;28;20478;-69
2022/07/01 01:10:54;;;;;;;45.88;34.63;;;14.20;99.90;;;;;;5046195;28;20131;-70
2022/07/01 01:13:21;;;;;;;52.28;37.15;;;14.20;99.90;;;;;;5061890;28;20060;-70
2022/07/01 01:15:47;;;;;;;58.35;40.67;;;14.10;99.90;;;;;;5036921;28;20103;-70
2022/07/01 01:18:15;;;;;;;59.92;40.08;;;14.20;99.90;;;;;;5043603;28;20060;-69
2022/07/01 01:20:41;;;;;;;80.03;49.72;;;14.20;99.90;;;;;;5008325;28;20045;-70
2022/07/01 01:23:08;;;;;;;84.88;56.10;;;14.20;99.90;;;;;;5031489;28;20074;-70
2022/07/01 01:25:35;;;;;;;79.10;51.72;;;14.20;99.90;;;;;;5045470;28;20068;-70
2022/07/01 01:28:03;;;;;;;71.55;50.20;;;14.00;99.90;;;;;;5043789;28;20111;-69
2022/07/01 01:30:30;;;;;;;78.68;51.17;;;14.00;99.90;;;;;;5041952;28;20347;-70
2022/07/01 01:32:56;;;;;;;83.00;53.80;;;13.90;99.90;;;;;;5063503;28;20114;-69
2022/07/01 01:35:23;;;;;;;65.97;46.28;;;13.90;99.90;;;;;;5027469;28;20076;-68
2022/07/01 01:37:51;;;;;;;47.72;34.95;;;14.00;99.90;;;;;;5046639;28;20044;-69
2022/07/01 01:40:19;;;;;;;46.67;33.85;;;13.80;99.90;;;;;;5045134;28;20086;-69
2022/07/01 01:42:46;;;;;;;29.25;24.17;;;13.80;99.90;;;;;;5043234;28;20504;-70
2022/07/01 01:45:13;;;;;;;23.13;18.48;;;13.80;99.90;;;;;;5039075;28;20111;-69
2022/07/01 01:47:40;;;;;;;22.58;17.40;;;13.70;99.90;;;;;;5044372;28;20048;-69
2022/07/01 01:50:09;;;;;;;23.75;17.27;;;13.70;99.90;;;;;;5045326;28;20052;-69
2022/07/01 01:52:37;;;;;;;20.20;17.23;;;13.70;99.90;;;;;;5060892;28;20076;-70
2022/07/01 01:55:05;;;;;;;21.38;18.50;;;13.70;99.90;;;;;;5055382;28;20090;-69
2022/07/01 01:57:31;;;;;;;21.63;18.42;;;13.70;99.90;;;;;;5063338;28;20052;-69
2022/07/01 01:59:58;;;;;;;25.48;21.02;;;13.70;99.90;;;;;;5029967;28;20114;-69
2022/07/01 02:02:25;;;;;;;29.48;20.83;;;13.70;99.90;;;;;;5063238;28;20044;-69
2022/07/01 02:04:52;;;;;;;31.27;22.63;;;13.70;99.90;;;;;;5046019;28;20044;-69
2022/07/01 02:07:18;;;;;;;32.47;23.13;;;13.70;99.90;;;;;;5053744;28;20139;-69
2022/07/01 02:09:45;;;;;;;31.48;23.90;;;13.70;99.90;;;;;;5054443;28;20063;-69
2022/07/01 02:12:12;;;;;;;31.80;23.65;;;13.60;99.90;;;;;;5047572;28;20037;-69
2022/07/01 02:14:39;;;;;;;33.13;23.00;;;13.60;99.90;;;;;;5041682;28;20048;-69
2022/07/01 02:17:06;;;;;;;32.58;23.40;;;13.70;99.90;;;;;;5048370;28;20143;-69
2022/07/01 02:19:33;;;;;;;29.95;21.83;;;13.60;99.90;;;;;;5062464;28;20049;-69
2022/07/01 02:22:00;;;;;;;31.13;22.75;;;13.70;99.90;;;;;;5043777;28;20105;-69
2022/07/01 02:24:27;;;;;;;31.75;23.30;;;13.60;99.90;;;;;;5032584;28;20618;-69
2022/07/01 02:26:54;;;;;;;30.60;24.20;;;13.70;99.90;;;;;;5025069;28;20052;-69
2022/07/01 02:29:20;;;;;;;31.98;23.23;;;13.70;99.90;;;;;;5043663;28;22011;-70
2022/07/01 02:31:47;;;;;;;34.53;24.83;;;13.70;99.90;;;;;;5061565;28;20048;-69
2022/07/01 02:34:14;;;;;;;35.35;24.70;;;13.70;99.90;;;;;;5063987;28;20052;-69
2022/07/01 02:36:41;;;;;;;38.42;25.70;;;13.70;99.90;;;;;;5061301;28;20052;-70
2022/07/01 02:39:08;;;;;;;33.75;24.13;;;13.70;99.90;;;;;;5058034;28;20575;-69
2022/07/01 02:42:22;;;;;;;36.10;24.15;;;13.70;99.90;;;;;;5045240;28;20041;-69
2022/07/01 02:44:23;;;;;;;36.92;25.20;;;13.80;99.90;;;;;;5045361;28;20159;-69
2022/07/01 02:46:49;;;;;;;29.63;22.20;;;13.80;99.90;;;;;;5045711;28;20092;-70
2022/07/01 02:49:16;;;;;;;39.38;25.27;;;13.80;99.90;;;;;;5061267;28;20059;-70
2022/07/01 02:51:43;;;;;;;37.17;25.23;;;13.80;99.90;;;;;;5065795;28;20110;-70
2022/07/01 02:54:10;;;;;;;42.67;27.75;;;13.70;99.90;;;;;;5025761;28;20479;-70
2022/07/01 02:56:37;;;;;;;43.55;27.27;;;13.70;99.90;;;;;;5028359;28;20534;-69
2022/07/01 02:59:03;;;;;;;40.75;27.02;;;13.80;99.90;;;;;;5046183;28;20049;-69
2022/07/01 03:01:30;;;;;;;40.20;26.20;;;13.70;99.90;;;;;;5044953;28;20069;-70
2022/07/01 03:03:57;;;;;;;34.67;24.98;;;13.70;99.90;;;;;;5045079;28;20056;-69
2022/07/01 03:06:23;;;;;;;38.47;25.65;;;13.70;99.90;;;;;;5052594;28;20419;-68
2022/07/01 03:08:50;;;;;;;40.75;25.50;;;13.70;99.90;;;;;;5037742;28;20048;-69
2022/07/01 03:11:17;;;;;;;39.85;25.00;;;13.70;99.90;;;;;;5065443;28;20083;-69
2022/07/01 03:13:44;;;;;;;38.78;25.63;;;13.80;99.90;;;;;;5047297;28;20524;-69
2022/07/01 03:16:11;;;;;;;42.58;27.38;;;13.70;99.90;;;;;;5052556;28;20465;-70
2022/07/01 03:18:38;;;;;;;40.13;26.13;;;13.70;99.90;;;;;;5029070;28;20048;-69
2022/07/01 03:21:04;;;;;;;41.42;25.33;;;13.70;99.90;;;;;;5062860;28;20094;-69
2022/07/01 03:23:31;;;;;;;49.63;30.38;;;13.70;99.90;;;;;;5058850;28;20083;-70
2022/07/01 03:25:58;;;;;;;61.40;34.13;;;13.80;99.90;;;;;;5044139;28;20079;-70
2022/07/01 03:28:25;;;;;;;64.80;35.72;;;13.80;99.90;;;;;;5009012;28;20496;-69
2022/07/01 03:30:51;;;;;;;62.53;36.63;;;13.80;99.90;;;;;;5043489;28;20111;-69
2022/07/01 03:33:19;;;;;;;77.10;42.13;;;13.80;99.90;;;;;;5042356;28;20534;-68
2022/07/01 03:35:46;;;;;;;75.60;41.67;;;13.70;99.90;;;;;;5050746;28;20262;-69
2022/07/01 03:38:12;;;;;;;81.20;42.60;;;13.70;99.90;;;;;;5015610;28;20098;-69
2022/07/01 03:40:39;;;;;;;87.30;44.50;;;13.60;99.90;;;;;;5042817;28;20248;-70
2022/07/01 03:43:06;;;;;;;88.47;45.08;;;13.70;99.90;;;;;;5043954;28;20529;-69
2022/07/01 03:45:33;;;;;;;88.90;45.15;;;13.70;99.90;;;;;;5024852;28;20041;-69
2022/07/01 03:48:02;;;;;;;82.35;43.35;;;13.80;99.90;;;;;;5008296;28;20713;-70
2022/07/01 03:50:28;;;;;;;83.45;44.38;;;13.80;99.90;;;;;;5051903;28;20040;-68
2022/07/01 03:55:41;;;;;;;81.32;44.33;;;13.80;99.90;;;;;;5036325;28;20090;-70
2022/07/01 03:58:07;;;;;;;78.35;44.03;;;13.80;99.90;;;;;;5063905;28;20558;-69
2022/07/01 04:00:36;;;;;;;78.45;45.45;;;13.80;99.90;;;;;;5044412;28;20048;-70
2022/07/01 04:03:04;;;;;;;80.32;44.80;;;13.80;99.90;;;;;;5045326;28;20401;-70
2022/07/01 04:05:35;;;;;;;87.22;44.95;;;13.80;99.90;;;;;;5038095;28;20114;-70
2022/07/01 04:08:04;;;;;;;78.70;46.72;;;13.70;99.90;;;;;;5053511;28;20049;-70
2022/07/01 04:10:33;;;;;;;73.63;44.30;;;13.70;99.90;;;;;;5048198;28;20109;-70
2022/07/01 04:13:01;;;;;;;72.60;41.92;;;13.70;99.90;;;;;;5045191;28;20456;-70
2022/07/01 04:15:48;;;;;;;71.15;42.03;;;13.70;99.90;;;;;;5034709;28;20049;-70
2022/07/01 04:18:15;;;;;;;67.45;41.95;;;13.80;99.90;;;;;;5043191;28;20149;-70
2022/07/01 04:20:42;;;;;;;61.65;40.22;;;13.70;99.90;;;;;;5025058;28;20059;-69
2022/07/01 04:23:09;;;;;;;68.75;39.85;;;13.70;99.90;;;;;;5048741;28;20044;-70
2022/07/01 04:25:36;;;;;;;66.13;40.25;;;13.70;99.90;;;;;;5044795;28;20119;-69
2022/07/01 04:28:03;;;;;;;60.10;35.60;;;13.70;99.90;;;;;;5043356;28;20053;-70
2022/07/01 04:30:30;;;;;;;56.65;37.88;;;13.60;99.90;;;;;;5023325;28;20584;-69
2022/07/01 04:32:57;;;;;;;60.22;39.78;;;13.60;99.90;;;;;;5040491;28;20131;-69
2022/07/01 04:35:24;;;;;;;56.22;37.08;;;13.60;99.90;;;;;;5050429;28;20683;-70
2022/07/01 04:37:51;;;;;;;57.88;39.17;;;13.70;99.90;;;;;;5050568;28;20048;-70
2022/07/01 04:40:17;;;;;;;64.53;40.83;;;13.70;99.90;;;;;;5053892;28;20109;-70
2022/07/01 04:42:44;;;;;;;66.25;39.78;;;13.70;99.90;;;;;;5025196;28;20510;-69
2022/07/01 04:45:11;;;;;;;59.47;38.17;;;13.80;99.90;;;;;;5042013;28;20045;-70
2022/07/01 04:47:38;;;;;;;56.90;36.08;;;13.70;99.90;;;;;;5041344;28;20241;-69
2022/07/01 04:50:05;;;;;;;57.17;36.47;;;13.60;99.90;;;;;;5040850;28;20041;-70
2022/07/01 04:52:31;;;;;;;59.95;37.35;;;13.60;99.90;;;;;;5047201;28;20477;-70
2022/07/01 04:54:58;;;;;;;55.40;35.60;;;13.60;99.90;;;;;;5054587;28;20079;-69
2022/07/01 04:57:33;;;;;;;61.87;38.77;;;13.70;99.90;;;;;;5044927;28;20442;-70
2022/07/01 04:59:59;;;;;;;61.35;37.75;;;13.70;99.90;;;;;;5062735;28;20075;-70
2022/07/01 05:02:26;;;;;;;60.70;37.67;;;13.70;99.90;;;;;;5060718;28;20125;-70
2022/07/01 05:04:54;;;;;;;61.03;37.60;;;13.70;99.90;;;;;;5043543;28;20334;-69
2022/07/01 05:07:30;;;;;;;64.45;37.63;;;13.60;99.90;;;;;;5050137;28;20593;-70
2022/07/01 05:09:58;;;;;;;65.25;39.67;;;13.60;99.90;;;;;;5044494;28;20578;-70
2022/07/01 05:12:26;;;;;;;63.00;36.92;;;13.60;99.90;;;;;;5024315;28;20114;-70
2022/07/01 05:14:52;;;;;;;62.58;37.72;;;13.60;99.90;;;;;;4987946;28;20254;-70
2022/07/01 05:17:19;;;;;;;71.72;39.60;;;13.60;99.90;;;;;;5004464;28;20115;-70
2022/07/01 05:22:31;;;;;;;72.65;40.50;;;13.60;99.90;;;;;;5032683;28;20045;-69
2022/07/01 05:24:58;;;;;;;74.28;41.38;;;13.60;99.90;;;;;;5042399;28;20048;-69
2022/07/01 05:27:25;;;;;;;71.63;39.83;;;13.50;99.90;;;;;;5061253;28;20103;-69
2022/07/01 05:29:53;;;;;;;73.00;40.92;;;13.60;99.90;;;;;;5061891;28;20113;-70
2022/07/01 05:32:20;;;;;;;68.43;40.70;;;13.60;99.90;;;;;;5061569;28;20466;-69
2022/07/01 05:34:46;;;;;;;73.78;41.47;;;13.60;99.90;;;;;;5060801;28;20087;-69
2022/07/01 05:37:16;;;;;;;75.90;42.92;;;13.50;99.90;;;;;;5032995;28;20167;-69
2022/07/01 05:39:43;;;;;;;76.70;42.50;;;13.50;99.90;;;;;;5034812;28;20059;-70
2022/07/01 05:42:16;;;;;;;71.43;39.85;;;13.50;99.90;;;;;;5062200;28;20048;-69
2022/07/01 05:44:43;;;;;;;74.28;41.40;;;13.50;99.90;;;;;;5061143;28;20167;-70
2022/07/01 05:47:10;;;;;;;71.95;39.65;;;13.50;99.90;;;;;;5044238;28;20442;-69
2022/07/01 05:49:37;;;;;;;67.72;36.97;;;13.50;99.90;;;;;;5061347;28;20541;-70
2022/07/01 05:52:04;;;;;;;64.63;37.47;;;13.40;99.90;;;;;;5044648;28;20850;-71
2022/07/01 05:54:30;;;;;;;66.38;37.20;;;13.40;99.90;;;;;;5054255;28;20414;-69
2022/07/01 05:56:57;;;;;;;65.13;36.70;;;13.40;99.90;;;;;;5044033;28;20431;-71
2022/07/01 05:59:24;;;;;;;64.28;36.13;;;13.40;99.90;;;;;;5041442;28;20076;-71
2022/07/01 06:01:51;;;;;;;66.70;36.53;;;13.40;99.90;;;;;;5024076;28;20045;-70
2022/07/01 06:04:17;;;;;;;62.65;37.33;;;13.50;99.90;;;;;;5023775;28;20079;-70
2022/07/01 06:06:45;;;;;;;68.28;37.75;;;13.40;99.90;;;;;;5031812;28;20049;-71
2022/07/01 06:09:11;;;;;;;60.88;35.30;;;13.50;99.90;;;;;;5033778;28;20060;-71
2022/07/01 06:11:38;;;;;;;66.25;39.10;;;13.40;99.90;;;;;;5027027;28;20076;-72
2022/07/01 06:14:05;;;;;;;68.50;38.97;;;13.50;99.90;;;;;;5045981;28;20514;-72
2022/07/01 06:16:32;;;;;;;72.65;39.20;;;13.50;99.90;;;;;;5045398;28;20126;-72
2022/07/01 06:18:59;;;;;;;63.33;37.92;;;13.40;99.90;;;;;;5028082;28;20123;-72
2022/07/01 06:21:26;;;;;;;72.95;39.40;;;13.40;99.90;;;;;;5010475;28;20053;-72
2022/07/01 06:23:53;;;;;;;73.43;37.80;;;13.30;99.90;;;;;;5034138;28;20465;-72
2022/07/01 06:26:19;;;;;;;63.00;36.45;;;13.30;99.90;;;;;;5025619;28;20517;-72
2022/07/01 06:28:46;;;;;;;58.50;32.55;;;13.30;99.90;;;;;;5039029;28;20102;-72
2022/07/01 06:31:13;;;;;;;59.78;31.95;;;13.10;99.90;;;;;;5051889;28;20044;-72
2022/07/01 06:33:40;;;;;;;55.58;31.55;;;13.20;99.90;;;;;;5048160;28;20390;-72
2022/07/01 06:36:06;;;;;;;53.20;29.35;;;13.30;99.90;;;;;;5039853;28;20048;-70
2022/07/01 06:38:33;;;;;;;47.53;30.40;;;13.20;99.90;;;;;;5054361;28;20147;-71
2022/07/01 06:43:45;;;;;;;;;;;13.00;99.90;;;;;;5046936;28;20478;-71
2022/07/01 06:46:12;;;;;;;43.80;25.30;;;12.90;99.90;;;;;;5043394;28;19931;-73
2022/07/01 06:48:39;;;;;;;43.78;25.92;;;12.90;99.90;;;;;;5055184;28;20132;-77
2022/07/01 06:51:06;;;;;;;41.65;25.05;;;12.90;99.90;;;;;;5025159;28;20097;-78
2022/07/01 06:53:40;;;;;;;45.22;28.20;;;12.90;99.90;;;;;;5005140;28;20351;-79
2022/07/01 06:56:07;;;;;;;37.92;26.17;;;12.90;99.90;;;;;;5059198;28;20043;-70
2022/07/01 06:58:34;;;;;;;40.58;26.63;;;13.10;99.90;;;;;;5060434;28;20521;-68
2022/07/01 07:01:01;;;;;;;39.20;26.83;;;13.20;99.90;;;;;;5045577;28;20128;-70
2022/07/01 07:03:27;;;;;;;36.38;24.40;;;13.20;99.90;;;;;;5062333;28;20048;-70
2022/07/01 07:05:54;;;;;;;36.70;24.77;;;13.20;99.90;;;;;;5056121;28;20036;-68
2022/07/01 07:08:21;;;;;;;34.35;23.23;;;13.30;99.90;;;;;;5062389;28;20076;-68
2022/07/01 07:10:48;;;;;;;34.22;24.95;;;13.40;99.90;;;;;;5063022;28;20037;-68
2022/07/01 07:13:14;;;;;;;35.17;23.73;;;13.40;99.90;;;;;;5063324;28;20260;-69
2022/07/01 07:15:41;;;;;;;34.53;25.08;;;13.60;99.90;;;;;;5058919;28;20124;-68
2022/07/01 07:18:08;;;;;;;37.55;26.83;;;13.60;99.90;;;;;;5063304;28;20048;-68
2022/07/01 07:20:35;;;;;;;31.83;24.27;;;13.80;99.90;;;;;;5061739;28;20041;-69
2022/07/01 07:23:02;;;;;;;30.33;23.30;;;14.10;99.90;;;;;;5057209;28;20061;-69
2022/07/01 07:25:30;;;;;;;36.80;25.63;;;14.20;99.90;;;;;;5033797;28;20136;-68
2022/07/01 07:27:57;;;;;;;35.47;25.73;;;14.20;99.90;;;;;;5063655;28;20763;-69
2022/07/01 07:30:24;;;;;;;39.53;29.23;;;14.20;99.90;;;;;;5063201;28;20048;-68
2022/07/01 07:32:51;;;;;;;36.95;28.48;;;14.30;99.90;;;;;;5064382;28;20074;-68
2022/07/01 07:35:17;;;;;;;40.03;29.80;;;14.30;99.90;;;;;;5063622;28;20499;-70
2022/07/01 07:37:45;;;;;;;34.97;29.90;;;14.20;99.90;;;;;;5045924;28;20445;-70
2022/07/01 07:40:14;;;;;;;41.28;33.15;;;14.10;99.90;;;;;;5061226;28;20563;-70
2022/07/01 07:42:41;;;;;;;38.40;31.20;;;14.20;99.90;;;;;;5045744;28;20068;-70
2022/07/01 07:45:08;;;;;;;38.00;31.77;;;14.20;99.90;;;;;;5063867;28;20083;-70
2022/07/01 07:47:36;;;;;;;37.22;31.08;;;14.30;99.90;;;;;;5063801;28;20105;-70
2022/07/01 07:50:03;;;;;;;36.97;30.70;;;14.40;99.90;;;;;;5064206;28;20507;-70
2022/07/01 07:52:30;;;;;;;34.85;31.05;;;14.40;99.90;;;;;;5043591;28;20049;-70
2022/07/01 07:54:57;;;;;;;35.00;30.77;;;14.40;99.90;;;;;;5063218;28;20049;-70
2022/07/01 07:57:24;;;;;;;34.63;30.70;;;14.40;99.90;;;;;;5063101;28;20102;-70
2022/07/01 07:59:50;;;;;;;35.78;31.52;;;14.50;99.90;;;;;;5045608;28;20824;-71
2022/07/01 08:02:18;;;;;;;32.05;28.85;;;14.50;99.90;;;;;;5045051;28;20044;-73
2022/07/01 08:04:50;;;;;;;35.22;31.45;;;14.50;99.90;;;;;;5040763;28;20048;-73
2022/07/01 08:07:17;;;;;;;33.35;29.80;;;14.50;99.90;;;;;;5059853;28;20137;-72
2022/07/01 08:09:47;;;;;;;35.53;31.10;;;14.60;99.90;;;;;;5062374;28;20113;-73
2022/07/01 08:12:15;;;;;;;33.90;30.35;;;14.50;99.90;;;;;;5045423;28;20045;-73
2022/07/01 08:14:42;;;;;;;29.73;26.73;;;14.50;99.90;;;;;;5062081;28;20047;-73
2022/07/01 08:17:09;;;;;;;32.28;29.00;;;14.50;99.90;;;;;;5063798;28;20151;-73
2022/07/01 08:19:36;;;;;;;32.60;29.40;;;14.50;99.90;;;;;;5061150;28;20072;-73
2022/07/01 08:22:03;;;;;;;30.33;27.35;;;14.50;99.90;;;;;;5045376;28;20048;-73
2022/07/01 08:24:29;;;;;;;33.42;29.90;;;14.50;99.90;;;;;;5062324;28;20187;-73
2022/07/01 08:26:56;;;;;;;33.92;30.40;;;14.50;99.90;;;;;;5063817;28;20165;-73
2022/07/01 08:29:23;;;;;;;34.33;31.23;;;14.70;99.90;;;;;;5045891;28;20044;-72
2022/07/01 08:31:50;;;;;;;33.58;30.38;;;14.70;99.90;;;;;;5062919;28;20314;-73
2022/07/01 08:34:20;;;;;;;33.67;30.65;;;14.90;99.90;;;;;;5062426;28;20052;-73
2022/07/01 08:36:47;;;;;;;33.90;30.73;;;15.00;99.90;;;;;;5063152;28;20277;-72
2022/07/01 08:39:13;;;;;;;34.15;30.88;;;15.10;99.90;;;;;;5062932;28;20086;-72
2022/07/01 08:41:41;;;;;;;34.70;31.30;;;15.20;99.90;;;;;;5061651;28;20055;-73
2022/07/01 08:44:08;;;;;;;31.52;28.63;;;15.10;99.90;;;;;;5044084;28;20404;-72
2022/07/01 08:46:35;;;;;;;31.63;28.73;;;15.10;99.90;;;;;;5062282;28;20045;-72
2022/07/01 08:49:02;;;;;;;31.23;28.15;;;15.10;99.90;;;;;;5045311;28;20044;-72
2022/07/01 08:51:29;;;;;;;32.47;29.65;;;15.10;99.90;;;;;;5061747;28;20056;-72
2022/07/01 08:53:56;;;;;;;31.48;28.42;;;15.00;99.90;;;;;;5040239;28;20051;-72
2022/07/01 08:56:41;;;;;;;32.22;29.25;;;14.80;99.90;;;;;;5062219;28;20048;-72
2022/07/01 08:59:12;;;;;;;32.67;29.67;;;14.80;99.90;;;;;;5062912;28;20482;-72
2022/07/01 09:01:40;;;;;;;30.70;28.08;;;14.80;99.90;;;;;;5061251;28;20507;-74
2022/07/01 09:04:16;;;;;;;33.78;30.80;;;14.90;99.90;;;;;;5061883;28;20064;-71
2022/07/01 09:06:44;;;;;;;34.15;31.10;;;14.90;99.90;;;;;;5050666;28;20141;-72
2022/07/01 09:09:12;;;;;;;32.55;29.77;;;15.00;99.90;;;;;;5042679;28;20102;-71
2022/07/01 09:11:45;;;;;;;32.53;29.73;;;15.20;99.90;;;;;;5043347;28;20540;-72
2022/07/01 09:14:14;;;;;;;32.92;30.13;;;15.30;99.90;;;;;;5043767;28;20052;-74
2022/07/01 09:17:01;;;;;;;32.53;29.48;;;15.60;99.90;;;;;;5028408;28;20125;-74
2022/07/01 09:19:31;;;;;;;32.30;29.75;;;15.70;99.90;;;;;;5061209;28;20044;-73
2022/07/01 09:22:00;;;;;;;31.77;29.17;;;15.60;99.90;;;;;;5061037;28;20048;-73
2022/07/01 09:24:39;;;;;;;34.90;31.70;;;15.70;99.90;;;;;;5054845;28;20068;-74
2022/07/01 09:27:16;;;;;;;33.28;30.52;;;16.10;99.90;;;;;;5044416;28;20044;-74
2022/07/01 09:29:44;;;;;;;34.60;31.90;;;16.30;99.90;;;;;;5039935;28;20201;-73
2022/07/01 09:32:13;;;;;;;33.20;30.50;;;16.30;99.90;;;;;;5046637;28;20049;-72
2022/07/01 09:34:42;;;;;;;34.20;31.35;;;16.50;99.90;;;;;;5059902;28;20140;-72
2022/07/01 09:37:12;;;;;;;34.67;31.63;;;16.70;99.90;;;;;;5060033;28;20551;-72
2022/07/01 09:39:47;;;;;;;35.30;32.15;;;16.70;99.90;;;;;;5058472;28;20045;-72
2022/07/01 09:42:17;;;;;;;34.28;31.15;;;16.70;99.90;;;;;;5059649;28;20152;-73
2022/07/01 09:45:02;;;;;;;32.13;29.45;;;16.70;99.90;;;;;;5063287;28;20908;-72
2022/07/01 09:47:33;;;;;;;32.38;29.92;;;16.90;99.90;;;;;;5026686;28;20259;-72
2022/07/01 09:50:00;;;;;;;30.70;28.60;;;16.80;99.90;;;;;;5062054;28;20056;-72
2022/07/01 09:52:28;;;;;;;29.25;27.15;;;16.70;99.90;;;;;;5061316;28;20109;-72
2022/07/01 09:55:04;;;;;;;29.95;27.63;;;16.70;99.90;;;;;;5045151;28;20048;-72
2022/07/01 09:57:31;;;;;;;29.05;26.83;;;16.90;99.90;;;;;;5079059;28;20044;-72
2022/07/01 09:59:58;;;;;;;28.00;25.92;;;17.00;99.90;;;;;;5052583;28;20040;-72
2022/07/01 10:02:29;;;;;;;29.33;27.25;;;17.00;99.90;;;;;;5031365;28;20057;-72
2022/07/01 10:05:01;;;;;;;29.27;27.17;;;17.10;99.90;;;;;;5031801;28;20513;-73
2022/07/01 10:07:47;;;;;;;29.50;27.40;;;17.00;99.90;;;;;;5050919;28;20048;-72
2022/07/01 10:10:38;;;;;;;28.45;26.60;;;17.00;99.90;;;;;;5040756;28;20102;-72
2022/07/01 10:13:08;;;;;;;28.60;26.52;;;17.10;99.90;;;;;;5064562;28;20044;-71
2022/07/01 10:15:35;;;;;;;28.92;26.63;;;17.20;99.90;;;;;;5063738;28;20043;-72
2022/07/01 10:18:02;;;;;;;25.75;24.00;;;17.20;99.90;;;;;;5063592;28;20290;-72
2022/07/01 10:20:30;;;;;;;26.30;24.50;;;17.20;99.90;;;;;;5062112;28;20048;-72
2022/07/01 10:23:05;;;;;;;25.65;24.08;;;17.40;99.90;;;;;;5041095;28;20036;-72
2022/07/01 10:25:43;;;;;;;24.40;22.80;;;17.70;99.90;;;;;;5060111;28;20082;-73
2022/07/01 10:28:25;;;;;;;25.70;23.90;;;18.00;99.90;;;;;;5055012;28;20102;-73
2022/07/01 10:30:53;;;;;;;25.15;23.55;;;18.20;99.90;;;;;;5062414;28;20063;-72
2022/07/01 10:33:31;;;;;;;24.30;22.73;;;18.20;99.90;;;;;;5055056;28;20660;-73
2022/07/01 10:36:31;;;;;;;26.38;24.52;;;18.20;99.90;;;;;;5033897;28;20036;-72
2022/07/01 10:39:07;;;;;;;27.05;25.27;;;18.10;99.90;;;;;;5060134;28;20861;-72
2022/07/01 10:41:34;;;;;;;28.63;26.20;;;18.10;99.90;;;;;;5058265;28;20508;-72
2022/07/01 10:44:07;;;;;;;27.85;25.95;;;18.00;99.90;;;;;;5054970;28;20083;-72
2022/07/01 10:46:56;;;;;;;27.55;25.58;;;18.10;99.90;;;;;;5060141;28;20044;-72
2022/07/01 10:49:35;;;;;;;28.85;26.60;;;18.30;99.90;;;;;;5062348;28;20079;-72
2022/07/01 10:52:10;;;;;;;27.65;25.77;;;18.10;99.90;;;;;;5062132;28;20228;-72
2022/07/01 10:54:40;;;;;;;27.85;26.02;;;17.80;99.90;;;;;;5049398;28;20053;-72
2022/07/01 10:57:17;;;;;;;29.52;27.33;;;17.70;99.90;;;;;;5042494;28;20118;-72
2022/07/01 10:59:50;;;;;;;28.40;26.33;;;17.80;99.90;;;;;;5045316;28;20048;-72
2022/07/01 11:02:22;;;;;;;29.60;27.35;;;17.60;99.90;;;;;;5044039;28;20052;-71
2022/07/01 11:04:51;;;;;;;30.02;27.85;;;17.50;99.90;;;;;;5061661;28;20125;-72
2022/07/01 11:07:18;;;;;;;28.73;26.83;;;17.50;99.90;;;;;;5043018;28;20271;-71
2022/07/01 11:09:45;;;;;;;29.50;27.50;;;17.40;99.90;;;;;;5037047;28;20052;-72
2022/07/01 11:12:15;;;;;;;29.13;27.13;;;17.20;99.90;;;;;;5060351;28;20106;-72
2022/07/01 11:14:42;;;;;;;30.23;28.10;;;17.10;99.90;;;;;;5060136;28;20071;-72
2022/07/01 11:17:11;;;;;;;30.30;28.17;;;16.90;99.90;;;;;;5062003;28;20278;-72
2022/07/01 11:19:38;;;;;;;29.55;27.52;;;16.80;99.90;;;;;;5061883;28;20557;-72
2022/07/01 11:22:05;;;;;;;30.83;28.30;;;16.70;99.90;;;;;;5036250;28;20509;-72
2022/07/01 11:24:32;;;;;;;29.65;27.40;;;16.60;99.90;;;;;;5034627;28;20048;-73
2022/07/01 11:27:07;;;;;;;29.98;27.67;;;16.50;99.90;;;;;;5042032;28;20490;-72
2022/07/01 11:29:34;;;;;;;27.70;25.35;;;16.50;99.90;;;;;;5030530;28;20040;-72
2022/07/01 11:32:02;;;;;;;25.05;23.02;;;16.50;99.90;;;;;;5060271;28;20135;-73
2022/07/01 11:34:29;;;;;;;24.15;22.58;;;16.40;99.90;;;;;;5042044;28;20948;-73
2022/07/01 11:39:47;;;;;;;24.77;23.05;;;16.40;99.90;;;;;;5060625;28;20048;-72
2022/07/01 11:42:13;;;;;;;26.08;24.33;;;16.40;99.90;;;;;;5061704;28;20070;-72
2022/07/01 11:44:43;;;;;;;26.40;24.17;;;16.40;99.90;;;;;;5057267;28;20583;-72
2022/07/01 11:47:12;;;;;;;26.23;24.60;;;16.40;99.90;;;;;;5052755;28;20666;-73
2022/07/01 11:49:46;;;;;;;24.48;22.98;;;16.40;99.90;;;;;;5059064;28;20076;-72
2022/07/01 11:52:14;;;;;;;25.38;23.75;;;16.40;99.90;;;;;;5058604;28;20454;-72
2022/07/01 11:54:44;;;;;;;25.27;23.55;;;16.40;99.90;;;;;;5048797;28;20059;-72
2022/07/01 11:57:12;;;;;;;25.45;23.98;;;16.50;99.90;;;;;;5058117;28;20451;-72
2022/07/01 11:59:40;;;;;;;26.38;24.52;;;16.60;99.90;;;;;;5041961;28;20465;-71
2022/07/01 12:02:13;;;;;;;24.83;23.33;;;16.60;99.90;;;;;;5035994;28;20048;-72
2022/07/01 12:04:41;;;;;;;25.40;23.77;;;16.80;99.90;;;;;;5060400;28;20114;-72
2022/07/01 12:07:10;;;;;;;25.55;23.83;;;17.00;99.90;;;;;;5058360;28;20542;-72
2022/07/01 12:09:37;;;;;;;25.60;23.90;;;17.10;99.90;;;;;;5060580;28;20059;-73
2022/07/01 12:12:05;;;;;;;26.23;24.27;;;17.00;99.90;;;;;;5041361;28;20504;-71
2022/07/01 12:14:34;;;;;;;25.25;23.67;;;17.00;99.90;;;;;;5059238;28;20144;-71
2022/07/01 12:17:04;;;;;;;26.52;24.42;;;17.10;99.90;;;;;;5042621;28;20102;-71
2022/07/01 12:19:40;;;;;;;25.10;23.50;;;17.10;99.90;;;;;;5058733;28;20144;-74
2022/07/01 12:22:19;;;;;;;24.95;23.05;;;17.00;99.90;;;;;;5055286;28;20041;-71
2022/07/01 12:24:47;;;;;;;24.80;23.23;;;17.00;99.90;;;;;;5025147;28;20056;-70
2022/07/01 12:27:14;;;;;;;25.30;23.70;;;17.00;99.90;;;;;;5059826;28;20401;-71
2022/07/01 12:29:47;;;;;;;25.52;24.05;;;17.10;99.90;;;;;;5041716;28;20076;-71
2022/07/01 12:32:22;;;;;;;25.80;24.30;;;17.30;99.90;;;;;;5042835;28;20481;-74
2022/07/01 12:34:50;;;;;;;25.63;24.20;;;17.70;99.90;;;;;;5041172;28;20586;-70
2022/07/01 12:37:19;;;;;;;26.15;24.30;;;18.20;99.90;;;;;;5061216;28;20133;-71
2022/07/01 12:39:51;;;;;;;27.27;25.45;;;18.70;99.90;;;;;;5054006;28;20037;-71
2022/07/01 12:42:25;;;;;;;25.65;23.95;;;19.00;99.90;;;;;;5067129;28;20052;-70
2022/07/01 12:44:54;;;;;;;25.85;23.92;;;19.30;99.90;;;;;;5047754;28;20056;-73
2022/07/01 12:47:29;;;;;;;25.80;24.10;;;19.30;99.90;;;;;;5060433;28;20056;-73